Terminal Aerodrome Forecast
Issued by NWS

Current Version | Previous Version | Graphics & Text | Print | Product List | Glossary Off
Versions: 1 2 3 4 5 6 7 8 9 10 11 12 13 14 15 16 17 18 19 20 21 22 23 24 25

000
FTUS41 KILN 061200 AAA
TAFLUK
TAF AMD
KLUK 061238Z 0613/0712 00000KT 1/2SM FG VV002
     FM061330 20006KT P6SM SCT250
     FM062300 20007KT P6SM SCT100 SCT250
     FM070900 22009KT P6SM SCT018 SCT120
      TEMPO 0710/0712 BKN018=

USA.gov is the U.S. government's official web portal to all federal, state and local government web resources and services.